createdAt,value
2022-12-23T00:02:03.379Z,98981.02
2022-12-23T00:07:06.113Z,98983.82
2022-12-23T00:12:27.579Z,98989.79
2022-12-23T00:17:30.325Z,98996.92
2022-12-23T00:22:51.956Z,99001.89
2022-12-23T00:28:03.530Z,99004.31
2022-12-23T00:33:06.321Z,99008.89
2022-12-23T00:38:09.553Z,99013.17
2022-12-23T00:43:12.195Z,99012.59
2022-12-23T00:48:33.683Z,99019.05
2022-12-23T00:53:36.415Z,99020.16
2022-12-23T00:58:39.074Z,99025.13
2022-12-23T01:04:00.395Z,99032.07
2022-12-23T01:09:03.310Z,99031.92
2022-12-23T01:14:06.314Z,99024.01
2022-12-23T01:19:09.645Z,99023.33
2022-12-23T01:24:12.530Z,99019.70
2022-12-23T01:29:15.211Z,99028.36
2022-12-23T01:34:18.032Z,99030.07
2022-12-23T01:39:20.730Z,99034.56
2022-12-23T01:44:49.950Z,99041.58
2022-12-23T01:50:00.932Z,99052.59
2022-12-23T01:55:04.019Z,99052.23
2022-12-23T02:00:27.871Z,99055.92
2022-12-23T02:05:30.853Z,99056.80
2022-12-23T02:10:59.198Z,99059.27
2022-12-23T02:16:18.783Z,99057.20
2022-12-23T02:21:24.532Z,99056.30
2022-12-23T02:27:05.100Z,99055.88
2022-12-23T02:32:37.591Z,99047.77
2022-12-23T02:37:53.492Z,99056.94
2022-12-23T02:43:06.662Z,99057.44
2022-12-23T02:48:22.340Z,99057.51
2022-12-23T02:53:33.352Z,99060.23
2022-12-23T02:58:43.709Z,99062.19
2022-12-23T03:03:48.195Z,99070.49
2022-12-23T03:08:55.647Z,99074.84
2022-12-23T03:14:24.681Z,99064.98
2022-12-23T03:19:36.433Z,99062.20
2022-12-23T03:25:07.976Z,99058.82
2022-12-23T03:30:16.715Z,99068.02
2022-12-23T03:35:23.685Z,99063.21
2022-12-23T03:40:28.542Z,99065.98
2022-12-23T03:45:40.831Z,99068.55
2022-12-23T03:50:46.358Z,99070.66
2022-12-23T03:55:56.718Z,99068.97
2022-12-23T04:01:14.641Z,99065.60
2022-12-23T04:06:21.094Z,99067.38
2022-12-23T04:11:24.271Z,99074.74
2022-12-23T04:16:28.735Z,99073.06
2022-12-23T04:21:31.422Z,99066.02
2022-12-23T04:26:34.086Z,99065.16
2022-12-23T04:31:36.845Z,99061.47
2022-12-23T04:36:39.725Z,99063.73
2022-12-23T04:41:42.435Z,99068.90
2022-12-23T04:46:45.210Z,99071.41
2022-12-23T04:51:48.119Z,99071.60
2022-12-23T04:56:50.801Z,99080.06
2022-12-23T05:01:53.624Z,99079.69
2022-12-23T05:06:56.613Z,99078.50
2022-12-23T05:11:59.341Z,99074.32
2022-12-23T05:17:07.160Z,99073.19
2022-12-23T05:22:10.686Z,99063.11
2022-12-23T05:27:13.407Z,99068.98
2022-12-23T05:32:16.182Z,99075.14
2022-12-23T05:37:18.863Z,99079.58
2022-12-23T05:42:21.556Z,99080.40
2022-12-23T05:47:24.303Z,99078.80
2022-12-23T05:52:28.204Z,99078.84
2022-12-23T05:57:32.342Z,99077.80
2022-12-23T06:02:35.168Z,99078.34
2022-12-23T06:07:39.119Z,99090.59
2022-12-23T06:12:41.789Z,99090.04
2022-12-23T06:17:44.974Z,99090.12
2022-12-23T06:22:48.230Z,99098.58
2022-12-23T06:27:50.987Z,99109.13
2022-12-23T06:32:53.789Z,99110.23
2022-12-23T06:37:56.498Z,99112.59
2022-12-23T06:42:59.146Z,99124.15
2022-12-23T06:48:01.881Z,99114.94
2022-12-23T06:53:04.688Z,99121.70
2022-12-23T06:58:07.603Z,99126.77
2022-12-23T07:03:10.535Z,99127.33
2022-12-23T07:08:13.503Z,99124.21
2022-12-23T07:13:16.613Z,99130.00
2022-12-23T07:18:19.279Z,99133.17
2022-12-23T07:23:22.013Z,99130.94
2022-12-23T07:28:24.908Z,99134.84
2022-12-23T07:33:27.713Z,99131.77
2022-12-23T07:38:30.397Z,99136.05
2022-12-23T07:43:33.073Z,99135.35
2022-12-23T07:48:35.905Z,99137.11
2022-12-23T07:53:38.640Z,99138.75
2022-12-23T07:58:41.313Z,99148.73
2022-12-23T08:03:44.069Z,99148.50
2022-12-23T08:08:47.259Z,99141.66
2022-12-23T08:13:50.026Z,99134.33
2022-12-23T08:18:52.704Z,99129.59
2022-12-23T08:23:55.397Z,99135.02
2022-12-23T08:28:58.095Z,99130.73
2022-12-23T08:34:01.138Z,99139.97
2022-12-23T08:39:08.118Z,99149.41
2022-12-23T08:44:11.230Z,99142.34
2022-12-23T08:49:14.177Z,99156.60
2022-12-23T08:54:17.851Z,99152.59
2022-12-23T08:59:20.580Z,99154.42
2022-12-23T09:04:23.261Z,99148.75
2022-12-23T09:09:25.992Z,99145.78
2022-12-23T09:14:29.071Z,99143.80
2022-12-23T09:19:31.806Z,99146.85
2022-12-23T09:24:34.467Z,99146.58
2022-12-23T09:29:37.279Z,99141.79
2022-12-23T09:34:39.973Z,99141.35
2022-12-23T09:39:43.254Z,99136.36
2022-12-23T09:44:59.074Z,99131.20
2022-12-23T09:50:10.436Z,99130.61
2022-12-23T09:55:15.386Z,99135.72
2022-12-23T10:00:19.724Z,99136.47
2022-12-23T10:05:35.430Z,99131.14
2022-12-23T10:10:48.773Z,99128.13
2022-12-23T10:15:52.789Z,99124.23
2022-12-23T10:21:06.087Z,99117.74
2022-12-23T10:26:26.087Z,99113.70
2022-12-23T10:31:50.827Z,99106.38
2022-12-23T10:37:08.574Z,99102.11
2022-12-23T10:42:23.668Z,99097.00
2022-12-23T10:48:13.537Z,99092.57
2022-12-23T10:53:31.437Z,99092.86
2022-12-23T10:58:40.782Z,99084.17
2022-12-23T11:04:13.234Z,99083.19
2022-12-23T11:09:38.200Z,99074.77
2022-12-23T11:14:42.769Z,99069.12
2022-12-23T11:19:45.602Z,99064.00
2022-12-23T11:24:48.547Z,99060.02
2022-12-23T11:29:54.917Z,99047.02
2022-12-23T11:34:57.963Z,99042.55
2022-12-23T11:40:00.738Z,99041.79
2022-12-23T11:45:07.177Z,99042.98
2022-12-23T11:50:37.739Z,99042.50
2022-12-23T11:55:48.439Z,99041.45
2022-12-23T12:01:06.979Z,99053.72
2022-12-23T12:06:14.669Z,99060.77
2022-12-23T12:11:21.329Z,99062.41
2022-12-23T12:16:52.004Z,99067.67
2022-12-23T12:22:00.934Z,99078.81
2022-12-23T12:27:07.103Z,99064.35
2022-12-23T12:32:20.900Z,99062.95
2022-12-23T12:37:35.348Z,99061.39
2022-12-23T12:42:42.535Z,99067.54
2022-12-23T12:47:54.973Z,99072.40
2022-12-23T12:53:10.514Z,99072.56
2022-12-23T12:58:20.336Z,99067.76
2022-12-23T13:03:52.336Z,99066.24
2022-12-23T13:09:01.294Z,99073.48
2022-12-23T13:14:34.693Z,99073.87
2022-12-23T13:19:49.993Z,99078.94
2022-12-23T13:25:14.324Z,99074.39
2022-12-23T13:30:20.197Z,99081.48
2022-12-23T13:35:41.064Z,99082.80
2022-12-23T13:41:11.327Z,99070.40
2022-12-23T13:46:50.078Z,99070.13
2022-12-23T13:52:13.258Z,99071.11
2022-12-23T13:57:25.097Z,99071.98
2022-12-23T14:02:37.213Z,99069.39
2022-12-23T14:07:44.820Z,99073.32
2022-12-23T14:12:47.931Z,99067.16
2022-12-23T14:18:15.635Z,99073.38
2022-12-23T14:24:00.842Z,99072.87
2022-12-23T14:29:49.656Z,99072.39
2022-12-23T14:35:11.441Z,99076.52
2022-12-23T14:40:39.065Z,99075.35
2022-12-23T14:45:43.103Z,99071.22
2022-12-23T14:50:57.912Z,99079.59
2022-12-23T14:56:09.882Z,99077.89
2022-12-23T15:01:17.101Z,99086.92
2022-12-23T15:06:32.313Z,99092.34
2022-12-23T15:11:37.273Z,99095.05
2022-12-23T15:16:45.031Z,99099.83
2022-12-23T15:21:54.488Z,99105.67
2022-12-23T15:32:29.732Z,99095.94
2022-12-23T15:37:33.898Z,99099.40
2022-12-23T15:42:38.631Z,99103.63
2022-12-23T15:47:43.078Z,99109.70
2022-12-23T15:52:49.169Z,99120.55
2022-12-23T15:57:52.855Z,99124.39
2022-12-23T16:03:01.069Z,99119.95
2022-12-23T16:08:21.719Z,99120.70
2022-12-23T16:13:29.357Z,99118.48
2022-12-23T16:18:34.433Z,99124.23
2022-12-23T16:23:37.402Z,99128.46
2022-12-23T16:28:44.211Z,99132.59
2022-12-23T16:33:57.264Z,99125.39
2022-12-23T16:39:02.517Z,99126.26
2022-12-23T16:44:05.416Z,99125.37
2022-12-23T16:49:15.072Z,99129.41
2022-12-23T16:54:20.543Z,99130.94
2022-12-23T16:59:24.988Z,99134.59
2022-12-23T17:04:27.773Z,99141.89
2022-12-23T17:09:30.449Z,99144.43
2022-12-23T17:14:33.183Z,99148.77
2022-12-23T17:19:35.901Z,99141.44
2022-12-23T17:24:38.997Z,99147.03
2022-12-23T17:29:41.992Z,99152.80
2022-12-23T17:34:44.795Z,99149.30
2022-12-23T17:39:47.803Z,99151.95
2022-12-23T17:44:51.055Z,99156.46
2022-12-23T17:49:53.795Z,99154.90
2022-12-23T17:54:56.707Z,99143.09
2022-12-23T17:59:59.385Z,99133.57
2022-12-23T18:05:13.744Z,99130.20
2022-12-23T18:10:18.863Z,99134.08
2022-12-23T18:15:27.480Z,99137.14
2022-12-23T18:20:30.185Z,99149.64
2022-12-23T18:25:32.922Z,99150.63
2022-12-23T18:30:35.680Z,99154.61
2022-12-23T18:35:43.193Z,99157.38
2022-12-23T18:40:46.056Z,99162.17
2022-12-23T18:45:53.102Z,99157.47
2022-12-23T18:50:56.395Z,99160.96
2022-12-23T18:55:59.341Z,99171.42
2022-12-23T19:01:02.132Z,99179.05
2022-12-23T19:06:07.499Z,99174.83
2022-12-23T19:11:20.232Z,99179.16
2022-12-23T19:16:23.324Z,99184.42
2022-12-23T19:21:26.215Z,99195.18
2022-12-23T19:26:29.065Z,99202.45
2022-12-23T19:31:34.127Z,99212.72
2022-12-23T19:36:37.195Z,99208.39
2022-12-23T19:41:40.070Z,99216.23
2022-12-23T19:46:43.109Z,99219.86
2022-12-23T19:51:46.181Z,99220.00
2022-12-23T19:56:51.040Z,99217.36
2022-12-23T20:01:53.815Z,99217.94
2022-12-23T20:06:56.932Z,99226.18
2022-12-23T20:11:59.811Z,99220.17
2022-12-23T20:17:02.664Z,99216.71
2022-12-23T20:22:05.463Z,99210.48
2022-12-23T20:27:11.701Z,99215.11
2022-12-23T20:32:16.283Z,99222.11
2022-12-23T20:37:19.096Z,99225.17
2022-12-23T20:42:21.966Z,99229.61
2022-12-23T20:47:24.766Z,99233.40
2022-12-23T20:52:27.493Z,99238.65
2022-12-23T20:57:31.763Z,99238.26
2022-12-23T21:02:34.435Z,99242.49
2022-12-23T21:07:37.218Z,99245.86
2022-12-23T21:12:40.097Z,99247.98
2022-12-23T21:17:43.145Z,99258.77
2022-12-23T21:22:46.355Z,99265.45
2022-12-23T21:27:51.697Z,99265.75
2022-12-23T21:33:00.465Z,99269.45
2022-12-23T21:38:03.157Z,99279.42
2022-12-23T21:43:08.875Z,99277.45
2022-12-23T21:48:11.831Z,99279.68
2022-12-23T21:53:14.489Z,99292.79
2022-12-23T21:58:17.221Z,99288.76
2022-12-23T22:03:19.919Z,99291.52
2022-12-23T22:08:22.596Z,99297.89
2022-12-23T22:13:27.028Z,99295.92
2022-12-23T22:18:30.945Z,99299.71
2022-12-23T22:23:33.750Z,99304.58
2022-12-23T22:28:37.321Z,99308.80
2022-12-23T22:33:40.045Z,99314.48
2022-12-23T22:38:43.997Z,99317.62
2022-12-23T22:43:46.837Z,99324.88
2022-12-23T22:48:50.044Z,99328.08
2022-12-23T22:53:54.307Z,99332.61
2022-12-23T22:58:57.182Z,99324.01
2022-12-23T23:04:02.145Z,99314.50
2022-12-23T23:09:11.982Z,99323.49
2022-12-23T23:14:15.391Z,99327.02
2022-12-23T23:19:20.507Z,99328.20
2022-12-23T23:24:29.362Z,99332.33
2022-12-23T23:29:34.182Z,99336.98
2022-12-23T23:34:37.198Z,99344.80
2022-12-23T23:39:39.975Z,99345.99
2022-12-23T23:44:42.653Z,99344.84
2022-12-23T23:49:45.672Z,99338.58
2022-12-23T23:54:48.346Z,99342.04
2022-12-23T23:59:51.079Z,99346.71
